sensor_id;sensor_type;location;lat;lon;timestamp;pressure;altitude;pressure_sealevel;temperature;humidity
72116;BME280;59991;52.140;5.428;2022-07-04T00:01:28;102069.78;;;14.52;74.43
72116;BME280;59991;52.140;5.428;2022-07-04T00:03:30;102074.06;;;14.49;74.66
72116;BME280;59991;52.140;5.428;2022-07-04T00:06:09;102073.63;;;14.47;74.65
72116;BME280;59991;52.140;5.428;2022-07-04T00:08:11;102068.50;;;14.42;74.91
72116;BME280;59991;52.140;5.428;2022-07-04T00:10:14;102061.72;;;14.36;74.60
72116;BME280;59991;52.140;5.428;2022-07-04T00:12:15;102063.25;;;14.34;74.54
72116;BME280;59991;52.140;5.428;2022-07-04T00:14:17;102058.88;;;14.29;74.88
72116;BME280;59991;52.140;5.428;2022-07-04T00:16:36;102050.22;;;14.24;75.40
72116;BME280;59991;52.140;5.428;2022-07-04T00:18:37;102045.84;;;14.19;75.35
72116;BME280;59991;52.140;5.428;2022-07-04T00:20:40;102053.63;;;14.17;75.15
72116;BME280;59991;52.140;5.428;2022-07-04T00:22:42;102057.53;;;14.16;75.15
72116;BME280;59991;52.140;5.428;2022-07-04T00:24:43;102050.47;;;14.15;75.09
72116;BME280;59991;52.140;5.428;2022-07-04T00:26:45;102048.84;;;14.10;75.06
72116;BME280;59991;52.140;5.428;2022-07-04T00:28:47;102051.94;;;14.09;75.26
72116;BME280;59991;52.140;5.428;2022-07-04T00:30:48;102052.31;;;14.07;75.79
72116;BME280;59991;52.140;5.428;2022-07-04T00:35:10;102045.59;;;14.01;75.32
72116;BME280;59991;52.140;5.428;2022-07-04T00:37:12;102041.59;;;13.95;75.52
72116;BME280;59991;52.140;5.428;2022-07-04T00:39:25;102049.44;;;13.97;75.54
72116;BME280;59991;52.140;5.428;2022-07-04T00:41:27;102041.53;;;13.92;75.51
72116;BME280;59991;52.140;5.428;2022-07-04T00:43:29;102039.16;;;13.90;75.68
72116;BME280;59991;52.140;5.428;2022-07-04T00:45:31;102040.69;;;13.88;76.18
72116;BME280;59991;52.140;5.428;2022-07-04T00:47:32;102040.25;;;13.86;75.39
72116;BME280;59991;52.140;5.428;2022-07-04T00:49:35;102034.38;;;13.83;75.91
72116;BME280;59991;52.140;5.428;2022-07-04T00:51:38;102041.41;;;13.81;75.82
72116;BME280;59991;52.140;5.428;2022-07-04T00:53:40;102034.63;;;13.75;76.16
72116;BME280;59991;52.140;5.428;2022-07-04T00:55:42;102030.63;;;13.69;76.42
72116;BME280;59991;52.140;5.428;2022-07-04T00:57:43;102032.16;;;13.66;76.34
72116;BME280;59991;52.140;5.428;2022-07-04T00:59:45;102030.97;;;13.64;76.01
72116;BME280;59991;52.140;5.428;2022-07-04T01:01:47;102031.75;;;13.64;76.25
72116;BME280;59991;52.140;5.428;2022-07-04T01:03:48;102032.91;;;13.63;76.41
72116;BME280;59991;52.140;5.428;2022-07-04T01:05:50;102032.06;;;13.59;76.17
72116;BME280;59991;52.140;5.428;2022-07-04T01:07:52;102034.44;;;13.61;76.35
72116;BME280;59991;52.140;5.428;2022-07-04T01:09:54;102030.84;;;13.57;76.13
72116;BME280;59991;52.140;5.428;2022-07-04T01:11:55;102026.53;;;13.56;76.27
72116;BME280;59991;52.140;5.428;2022-07-04T01:13:57;102026.09;;;13.54;76.29
72116;BME280;59991;52.140;5.428;2022-07-04T01:15:59;102027.63;;;13.51;76.50
72116;BME280;59991;52.140;5.428;2022-07-04T01:18:01;102034.63;;;13.48;76.47
72116;BME280;59991;52.140;5.428;2022-07-04T01:20:03;102033.81;;;13.48;76.82
72116;BME280;59991;52.140;5.428;2022-07-04T01:22:06;102027.97;;;13.49;76.88
72116;BME280;59991;52.140;5.428;2022-07-04T01:24:11;102029.50;;;13.47;76.36
72116;BME280;59991;52.140;5.428;2022-07-04T01:26:13;102019.63;;;13.39;77.49
72116;BME280;59991;52.140;5.428;2022-07-04T01:28:17;102025.09;;;13.39;77.36
72116;BME280;59991;52.140;5.428;2022-07-04T01:30:19;102024.25;;;13.35;77.19
72116;BME280;59991;52.140;5.428;2022-07-04T01:32:20;102021.06;;;13.33;77.36
72116;BME280;59991;52.140;5.428;2022-07-04T01:34:22;102024.66;;;13.37;76.98
72116;BME280;59991;52.140;5.428;2022-07-04T01:36:23;102024.25;;;13.35;77.14
72116;BME280;59991;52.140;5.428;2022-07-04T01:38:25;102026.56;;;13.33;77.02
72116;BME280;59991;52.140;5.428;2022-07-04T01:40:26;102025.75;;;13.32;77.71
72116;BME280;59991;52.140;5.428;2022-07-04T01:42:28;102020.22;;;13.29;77.42
72116;BME280;59991;52.140;5.428;2022-07-04T01:44:29;102017.47;;;13.29;77.11
72116;BME280;59991;52.140;5.428;2022-07-04T01:46:31;102019.38;;;13.25;77.56
72116;BME280;59991;52.140;5.428;2022-07-04T01:48:32;102013.84;;;13.21;78.12
72116;BME280;59991;52.140;5.428;2022-07-04T01:50:34;102023.28;;;13.24;77.88
72116;BME280;59991;52.140;5.428;2022-07-04T01:52:36;102015.38;;;13.19;77.49
72116;BME280;59991;52.140;5.428;2022-07-04T01:54:38;102012.19;;;13.17;77.61
72116;BME280;59991;52.140;5.428;2022-07-04T01:56:40;102019.25;;;13.18;77.47
72116;BME280;59991;52.140;5.428;2022-07-04T01:58:42;102011.75;;;13.14;77.63
72116;BME280;59991;52.140;5.428;2022-07-04T02:00:43;102015.56;;;13.10;77.80
72116;BME280;59991;52.140;5.428;2022-07-04T02:03:04;102011.25;;;13.09;77.64
72116;BME280;59991;52.140;5.428;2022-07-04T02:05:06;102008.78;;;13.00;77.51
72116;BME280;59991;52.140;5.428;2022-07-04T02:07:08;102006.41;;;12.99;77.60
72116;BME280;59991;52.140;5.428;2022-07-04T02:09:09;102011.50;;;13.00;77.83
72116;BME280;59991;52.140;5.428;2022-07-04T02:11:17;102010.72;;;13.00;78.26
72116;BME280;59991;52.140;5.428;2022-07-04T02:13:18;102008.69;;;12.97;78.04
72116;BME280;59991;52.140;5.428;2022-07-04T02:15:20;102007.13;;;12.96;78.25
72116;BME280;59991;52.140;5.428;2022-07-04T02:17:21;102022.41;;;12.97;78.29
72116;BME280;59991;52.140;5.428;2022-07-04T02:19:24;102016.06;;;12.93;78.11
72116;BME280;59991;52.140;5.428;2022-07-04T02:21:43;102019.59;;;12.93;78.50
72116;BME280;59991;52.140;5.428;2022-07-04T02:23:45;102018.38;;;12.91;78.45
72116;BME280;59991;52.140;5.428;2022-07-04T02:25:46;102015.59;;;12.87;78.63
72116;BME280;59991;52.140;5.428;2022-07-04T02:27:48;102007.75;;;12.86;78.46
72116;BME280;59991;52.140;5.428;2022-07-04T02:29:49;102016.38;;;12.88;78.10
72116;BME280;59991;52.140;5.428;2022-07-04T02:31:51;102019.47;;;12.86;78.70
72116;BME280;59991;52.140;5.428;2022-07-04T02:33:52;102006.44;;;12.79;78.38
72116;BME280;59991;52.140;5.428;2022-07-04T02:35:54;102018.63;;;12.82;78.01
72116;BME280;59991;52.140;5.428;2022-07-04T02:37:55;102013.50;;;12.80;78.24
72116;BME280;59991;52.140;5.428;2022-07-04T02:39:57;102009.13;;;12.76;78.37
72116;BME280;59991;52.140;5.428;2022-07-04T02:41:58;102009.91;;;12.76;78.26
72116;BME280;59991;52.140;5.428;2022-07-04T02:44:00;102016.53;;;12.75;78.89
72116;BME280;59991;52.140;5.428;2022-07-04T02:46:01;102007.84;;;12.70;78.67
72116;BME280;59991;52.140;5.428;2022-07-04T02:48:03;102009.00;;;12.69;79.00
72116;BME280;59991;52.140;5.428;2022-07-04T02:50:05;102014.47;;;12.69;78.58
72116;BME280;59991;52.140;5.428;2022-07-04T02:52:24;102016.00;;;12.66;78.84
72116;BME280;59991;52.140;5.428;2022-07-04T02:54:25;102012.03;;;12.64;78.92
72116;BME280;59991;52.140;5.428;2022-07-04T02:56:45;102010.00;;;12.61;79.07
72116;BME280;59991;52.140;5.428;2022-07-04T02:58:47;102011.53;;;12.58;79.11
72116;BME280;59991;52.140;5.428;2022-07-04T03:00:49;102008.00;;;12.58;79.18
72116;BME280;59991;52.140;5.428;2022-07-04T03:02:50;102003.25;;;12.55;78.64
72116;BME280;59991;52.140;5.428;2022-07-04T03:04:52;102012.25;;;12.55;78.99
72116;BME280;59991;52.140;5.428;2022-07-04T03:06:53;102012.59;;;12.54;79.01
72116;BME280;59991;52.140;5.428;2022-07-04T03:08:54;102019.22;;;12.53;78.98
72116;BME280;59991;52.140;5.428;2022-07-04T03:10:56;102015.66;;;12.49;79.18
72116;BME280;59991;52.140;5.428;2022-07-04T03:12:58;102015.22;;;12.47;79.21
72116;BME280;59991;52.140;5.428;2022-07-04T03:15:05;102013.19;;;12.43;79.66
72116;BME280;59991;52.140;5.428;2022-07-04T03:17:07;102015.16;;;12.43;79.44
72116;BME280;59991;52.140;5.428;2022-07-04T03:19:09;102020.63;;;12.43;79.36
72116;BME280;59991;52.140;5.428;2022-07-04T03:21:10;102014.72;;;12.41;80.04
72116;BME280;59991;52.140;5.428;2022-07-04T03:23:13;102026.09;;;12.43;80.08
72116;BME280;59991;52.140;5.428;2022-07-04T03:25:15;102018.69;;;12.43;79.81
72116;BME280;59991;52.140;5.428;2022-07-04T03:27:16;102026.81;;;12.40;79.98
72116;BME280;59991;52.140;5.428;2022-07-04T03:29:17;102022.13;;;12.40;80.05
72116;BME280;59991;52.140;5.428;2022-07-04T03:31:19;102021.34;;;12.40;79.92
72116;BME280;59991;52.140;5.428;2022-07-04T03:33:21;102025.56;;;12.37;79.76
72116;BME280;59991;52.140;5.428;2022-07-04T03:35:22;102033.50;;;12.42;79.65
72116;BME280;59991;52.140;5.428;2022-07-04T03:37:24;102022.84;;;12.37;79.36
72116;BME280;59991;52.140;5.428;2022-07-04T03:39:25;102028.75;;;12.39;79.70
72116;BME280;59991;52.140;5.428;2022-07-04T03:41:27;102028.31;;;12.37;80.27
72116;BME280;59991;52.140;5.428;2022-07-04T03:43:28;102025.94;;;12.36;80.56
72116;BME280;59991;52.140;5.428;2022-07-04T03:45:30;102022.41;;;12.35;79.88
72116;BME280;59991;52.140;5.428;2022-07-04T03:47:32;102021.34;;;12.40;80.29
72116;BME280;59991;52.140;5.428;2022-07-04T03:49:33;102022.06;;;12.37;79.99
72116;BME280;59991;52.140;5.428;2022-07-04T03:51:35;102025.56;;;12.37;80.20
72116;BME280;59991;52.140;5.428;2022-07-04T03:53:36;102029.47;;;12.36;79.98
72116;BME280;59991;52.140;5.428;2022-07-04T03:55:38;102029.09;;;12.38;80.51
72116;BME280;59991;52.140;5.428;2022-07-04T03:57:40;102026.38;;;12.38;80.33
72116;BME280;59991;52.140;5.428;2022-07-04T03:59:42;102031.03;;;12.37;80.41
72116;BME280;59991;52.140;5.428;2022-07-04T04:01:43;102033.50;;;12.42;80.78
72116;BME280;59991;52.140;5.428;2022-07-04T04:03:45;102041.00;;;12.45;80.43
72116;BME280;59991;52.140;5.428;2022-07-04T04:06:06;102037.09;;;12.47;80.81
72116;BME280;59991;52.140;5.428;2022-07-04T04:08:07;102029.25;;;12.45;81.23
72116;BME280;59991;52.140;5.428;2022-07-04T04:10:09;102035.25;;;12.51;80.77
72116;BME280;59991;52.140;5.428;2022-07-04T04:12:11;102032.88;;;12.49;81.29
72116;BME280;59991;52.140;5.428;2022-07-04T04:14:30;102047.75;;;12.52;81.16
72116;BME280;59991;52.140;5.428;2022-07-04T04:16:31;102042.25;;;12.52;81.38
72116;BME280;59991;52.140;5.428;2022-07-04T04:18:33;102048.59;;;12.56;81.29
72116;BME280;59991;52.140;5.428;2022-07-04T04:20:35;102045.88;;;12.56;81.71
72116;BME280;59991;52.140;5.428;2022-07-04T04:22:36;102051.78;;;12.58;82.25
72116;BME280;59991;52.140;5.428;2022-07-04T04:24:38;102039.31;;;12.60;81.76
72116;BME280;59991;52.140;5.428;2022-07-04T04:26:39;102046.03;;;12.63;82.20
72116;BME280;59991;52.140;5.428;2022-07-04T04:28:41;102047.59;;;12.64;81.67
72116;BME280;59991;52.140;5.428;2022-07-04T04:30:42;102044.16;;;12.67;82.02
72116;BME280;59991;52.140;5.428;2022-07-04T04:32:44;102048.47;;;12.68;82.06
72116;BME280;59991;52.140;5.428;2022-07-04T04:34:46;102047.31;;;12.69;82.08
72116;BME280;59991;52.140;5.428;2022-07-04T04:36:47;102044.19;;;12.70;82.10
72116;BME280;59991;52.140;5.428;2022-07-04T04:38:49;102052.47;;;12.74;82.19
72116;BME280;59991;52.140;5.428;2022-07-04T04:41:09;102058.03;;;12.77;82.14
72116;BME280;59991;52.140;5.428;2022-07-04T04:43:11;102057.66;;;12.79;82.12
72116;BME280;59991;52.140;5.428;2022-07-04T04:45:12;102052.19;;;12.79;82.20
72116;BME280;59991;52.140;5.428;2022-07-04T04:47:14;102056.94;;;12.82;82.63
72116;BME280;59991;52.140;5.428;2022-07-04T04:49:16;102055.06;;;12.86;82.40
72116;BME280;59991;52.140;5.428;2022-07-04T04:51:18;102062.56;;;12.89;82.52
72116;BME280;59991;52.140;5.428;2022-07-04T04:53:19;102068.06;;;12.93;82.57
72116;BME280;59991;52.140;5.428;2022-07-04T04:55:23;102058.34;;;12.95;82.73
72116;BME280;59991;52.140;5.428;2022-07-04T04:57:25;102069.38;;;12.99;82.84
72116;BME280;59991;52.140;5.428;2022-07-04T04:59:28;102068.28;;;13.03;82.99
72116;BME280;59991;52.140;5.428;2022-07-04T05:01:31;102063.16;;;13.02;82.28
72116;BME280;59991;52.140;5.428;2022-07-04T05:03:42;102065.22;;;13.08;83.13
72116;BME280;59991;52.140;5.428;2022-07-04T05:05:44;102067.41;;;13.19;82.93
72116;BME280;59991;52.140;5.428;2022-07-04T05:07:51;102058.97;;;13.27;83.10
72116;BME280;59991;52.140;5.428;2022-07-04T05:09:55;102066.50;;;13.34;82.37
72116;BME280;59991;52.140;5.428;2022-07-04T05:12:00;102055.97;;;13.36;82.64
72116;BME280;59991;52.140;5.428;2022-07-04T05:14:02;102057.97;;;13.39;82.54
72116;BME280;59991;52.140;5.428;2022-07-04T05:16:03;102057.53;;;13.37;82.76
72116;BME280;59991;52.140;5.428;2022-07-04T05:18:05;102059.56;;;13.40;83.17
72116;BME280;59991;52.140;5.428;2022-07-04T05:20:07;102058.03;;;13.42;82.67
72116;BME280;59991;52.140;5.428;2022-07-04T05:22:09;102068.34;;;13.53;82.74
72116;BME280;59991;52.140;5.428;2022-07-04T05:24:11;102064.47;;;13.54;82.50
72116;BME280;59991;52.140;5.428;2022-07-04T05:26:13;102066.53;;;13.60;82.81
72116;BME280;59991;52.140;5.428;2022-07-04T05:28:14;102069.34;;;13.64;82.48
72116;BME280;59991;52.140;5.428;2022-07-04T05:30:16;102068.63;;;13.70;82.78
72116;BME280;59991;52.140;5.428;2022-07-04T05:32:17;102067.59;;;13.78;82.81
72116;BME280;59991;52.140;5.428;2022-07-04T05:34:19;102063.31;;;13.81;83.23
72116;BME280;59991;52.140;5.428;2022-07-04T05:36:22;102059.84;;;13.84;82.97
72116;BME280;59991;52.140;5.428;2022-07-04T05:38:29;102059.50;;;13.89;83.08
72116;BME280;59991;52.140;5.428;2022-07-04T05:40:31;102066.31;;;13.99;83.23
72116;BME280;59991;52.140;5.428;2022-07-04T05:42:35;102078.97;;;14.07;83.14
72116;BME280;59991;52.140;5.428;2022-07-04T05:44:37;102064.94;;;14.12;83.12
72116;BME280;59991;52.140;5.428;2022-07-04T05:46:38;102068.56;;;14.20;82.99
72116;BME280;59991;52.140;5.428;2022-07-04T05:48:40;102057.72;;;14.30;82.96
72116;BME280;59991;52.140;5.428;2022-07-04T05:50:42;102070.06;;;14.43;83.75
72116;BME280;59991;52.140;5.428;2022-07-04T05:52:45;102077.69;;;14.57;83.71
72116;BME280;59991;52.140;5.428;2022-07-04T05:54:47;102082.91;;;14.69;83.19
72116;BME280;59991;52.140;5.428;2022-07-04T05:56:49;102084.97;;;14.76;82.94
72116;BME280;59991;52.140;5.428;2022-07-04T05:58:50;102089.78;;;14.86;83.25
72116;BME280;59991;52.140;5.428;2022-07-04T06:00:53;102085.19;;;14.97;83.29
72116;BME280;59991;52.140;5.428;2022-07-04T06:03:12;102086.09;;;15.08;82.56
72116;BME280;59991;52.140;5.428;2022-07-04T06:05:14;102089.66;;;15.12;82.63
72116;BME280;59991;52.140;5.428;2022-07-04T06:07:15;102080.25;;;15.13;82.35
72116;BME280;59991;52.140;5.428;2022-07-04T06:09:16;102081.78;;;15.11;81.88
72116;BME280;59991;52.140;5.428;2022-07-04T06:11:18;102079.84;;;15.11;81.92
72116;BME280;59991;52.140;5.428;2022-07-04T06:13:19;102080.63;;;15.12;82.44
72116;BME280;59991;52.140;5.428;2022-07-04T06:15:21;102079.91;;;15.18;81.92
72116;BME280;59991;52.140;5.428;2022-07-04T06:17:22;102081.53;;;15.27;81.83
72116;BME280;59991;52.140;5.428;2022-07-04T06:19:24;102091.03;;;15.33;81.88
72116;BME280;59991;52.140;5.428;2022-07-04T06:21:25;102096.59;;;15.43;82.09
72116;BME280;59991;52.140;5.428;2022-07-04T06:23:26;102098.75;;;15.61;81.55
72116;BME280;59991;52.140;5.428;2022-07-04T06:25:28;102099.25;;;15.73;81.33
72116;BME280;59991;52.140;5.428;2022-07-04T06:27:29;102082.00;;;15.80;81.42
72116;BME280;59991;52.140;5.428;2022-07-04T06:29:30;102080.88;;;15.88;81.39
72116;BME280;59991;52.140;5.428;2022-07-04T06:31:32;102083.31;;;15.97;80.63
72116;BME280;59991;52.140;5.428;2022-07-04T06:33:33;102071.50;;;15.96;79.68
72116;BME280;59991;52.140;5.428;2022-07-04T06:35:55;102073.78;;;15.87;79.65
72116;BME280;59991;52.140;5.428;2022-07-04T06:37:56;102071.00;;;15.80;79.87
72116;BME280;59991;52.140;5.428;2022-07-04T06:39:58;102063.94;;;15.82;79.93
72116;BME280;59991;52.140;5.428;2022-07-04T06:41:59;102067.50;;;15.86;79.64
72116;BME280;59991;52.140;5.428;2022-07-04T06:44:18;102077.81;;;15.97;79.65
72116;BME280;59991;52.140;5.428;2022-07-04T06:46:19;102071.16;;;16.05;79.87
72116;BME280;59991;52.140;5.428;2022-07-04T06:48:21;102079.44;;;16.12;80.13
72116;BME280;59991;52.140;5.428;2022-07-04T06:50:22;102075.94;;;16.15;79.64
72116;BME280;59991;52.140;5.428;2022-07-04T06:52:40;102078.31;;;16.23;79.64
72116;BME280;59991;52.140;5.428;2022-07-04T06:54:42;102084.69;;;16.35;79.47
72116;BME280;59991;52.140;5.428;2022-07-04T06:56:43;102074.47;;;16.42;79.34
72116;BME280;59991;52.140;5.428;2022-07-04T06:58:44;102070.16;;;16.41;78.96
72116;BME280;59991;52.140;5.428;2022-07-04T07:00:46;102070.50;;;16.36;78.84
72116;BME280;59991;52.140;5.428;2022-07-04T07:02:47;102078.41;;;16.41;78.94
72116;BME280;59991;52.140;5.428;2022-07-04T07:04:49;102073.34;;;16.50;79.65
72116;BME280;59991;52.140;5.428;2022-07-04T07:06:50;102069.81;;;16.61;79.00
72116;BME280;59991;52.140;5.428;2022-07-04T07:08:51;102067.53;;;16.70;78.86
72116;BME280;59991;52.140;5.428;2022-07-04T07:10:53;102070.31;;;16.80;78.86
72116;BME280;59991;52.140;5.428;2022-07-04T07:12:56;102070.34;;;16.87;78.59
72116;BME280;59991;52.140;5.428;2022-07-04T07:14:57;102062.47;;;16.89;78.38
72116;BME280;59991;52.140;5.428;2022-07-04T07:16:59;102075.06;;;16.98;78.77
72116;BME280;59991;52.140;5.428;2022-07-04T07:19:01;102069.97;;;17.03;78.17
72116;BME280;59991;52.140;5.428;2022-07-04T07:21:02;102068.81;;;17.11;78.33
72116;BME280;59991;52.140;5.428;2022-07-04T07:23:04;102069.97;;;17.21;78.14
72116;BME280;59991;52.140;5.428;2022-07-04T07:25:06;102062.50;;;17.29;77.19
72116;BME280;59991;52.140;5.428;2022-07-04T07:27:08;102052.66;;;17.35;76.90
72116;BME280;59991;52.140;5.428;2022-07-04T07:29:10;102058.56;;;17.37;76.77
72116;BME280;59991;52.140;5.428;2022-07-04T07:31:11;102057.78;;;17.43;76.56
72116;BME280;59991;52.140;5.428;2022-07-04T07:33:13;102065.28;;;17.50;76.89
72116;BME280;59991;52.140;5.428;2022-07-04T07:35:14;102076.66;;;17.59;75.89
72116;BME280;59991;52.140;5.428;2022-07-04T07:37:16;102082.59;;;17.72;75.30
72116;BME280;59991;52.140;5.428;2022-07-04T07:39:18;102087.72;;;17.87;75.52
72116;BME280;59991;52.140;5.428;2022-07-04T07:41:20;102084.53;;;18.07;73.62
72116;BME280;59991;52.140;5.428;2022-07-04T07:43:22;102081.72;;;18.21;73.38
72116;BME280;59991;52.140;5.428;2022-07-04T07:45:24;102080.13;;;18.20;72.78
72116;BME280;59991;52.140;5.428;2022-07-04T07:47:30;102077.81;;;18.04;72.15
72116;BME280;59991;52.140;5.428;2022-07-04T07:49:57;102078.25;;;17.88;73.09
72116;BME280;59991;52.140;5.428;2022-07-04T07:52:06;102080.22;;;17.88;73.94
72116;BME280;59991;52.140;5.428;2022-07-04T07:54:10;102069.94;;;18.03;72.31
72116;BME280;59991;52.140;5.428;2022-07-04T07:56:21;102072.25;;;18.15;72.42
72116;BME280;59991;52.140;5.428;2022-07-04T07:58:22;102055.31;;;18.13;72.42
72116;BME280;59991;52.140;5.428;2022-07-04T08:00:27;102072.63;;;18.27;71.88
72116;BME280;59991;52.140;5.428;2022-07-04T08:02:48;102072.50;;;18.52;71.97
72116;BME280;59991;52.140;5.428;2022-07-04T08:05:10;102064.53;;;18.72;71.66
72116;BME280;59991;52.140;5.428;2022-07-04T08:07:12;102077.84;;;18.88;70.54
72116;BME280;59991;52.140;5.428;2022-07-04T08:09:25;102073.91;;;18.89;69.96
72116;BME280;59991;52.140;5.428;2022-07-04T08:11:29;102076.63;;;18.96;69.78
72116;BME280;59991;52.140;5.428;2022-07-04T08:13:33;102072.97;;;19.13;70.10
72116;BME280;59991;52.140;5.428;2022-07-04T08:15:35;102087.41;;;19.35;69.21
72116;BME280;59991;52.140;5.428;2022-07-04T08:17:39;102074.31;;;19.43;67.79
72116;BME280;59991;52.140;5.428;2022-07-04T08:19:47;102074.28;;;19.46;66.20
72116;BME280;59991;52.140;5.428;2022-07-04T08:21:59;102081.88;;;19.39;66.34
72116;BME280;59991;52.140;5.428;2022-07-04T08:24:19;102085.47;;;19.28;67.23
72116;BME280;59991;52.140;5.428;2022-07-04T08:26:21;102091.75;;;19.40;67.59
72116;BME280;59991;52.140;5.428;2022-07-04T08:28:27;102086.47;;;19.59;68.08
72116;BME280;59991;52.140;5.428;2022-07-04T08:30:36;102092.38;;;19.61;66.38
72116;BME280;59991;52.140;5.428;2022-07-04T08:32:40;102090.84;;;19.53;63.82
72116;BME280;59991;52.140;5.428;2022-07-04T08:34:42;102091.94;;;19.63;66.41
72116;BME280;59991;52.140;5.428;2022-07-04T08:36:48;102083.75;;;19.52;65.25
72116;BME280;59991;52.140;5.428;2022-07-04T08:39:07;102088.59;;;19.34;65.76
72116;BME280;59991;52.140;5.428;2022-07-04T08:41:16;102093.84;;;19.21;65.89
72116;BME280;59991;52.140;5.428;2022-07-04T08:43:25;102090.75;;;19.12;65.97
72116;BME280;59991;52.140;5.428;2022-07-04T08:45:31;102099.41;;;19.14;66.53
72116;BME280;59991;52.140;5.428;2022-07-04T08:47:43;102092.75;;;19.08;67.39
72116;BME280;59991;52.140;5.428;2022-07-04T08:50:10;102092.00;;;19.04;67.01
72116;BME280;59991;52.140;5.428;2022-07-04T08:52:21;102098.75;;;18.96;66.77
72116;BME280;59991;52.140;5.428;2022-07-04T08:54:36;102104.69;;;18.91;67.62
72116;BME280;59991;52.140;5.428;2022-07-04T08:57:18;102102.00;;;18.84;68.70
72116;BME280;59991;52.140;5.428;2022-07-04T08:59:41;102109.91;;;18.75;68.17
72116;BME280;59991;52.140;5.428;2022-07-04T09:01:47;102109.16;;;18.71;67.91
72116;BME280;59991;52.140;5.428;2022-07-04T09:03:52;102107.22;;;18.64;67.78
72116;BME280;59991;52.140;5.428;2022-07-04T09:06:02;102107.22;;;18.60;67.39
72116;BME280;59991;52.140;5.428;2022-07-04T09:08:04;102111.56;;;18.54;66.71
72116;BME280;59991;52.140;5.428;2022-07-04T09:10:06;102110.00;;;18.53;67.15
72116;BME280;59991;52.140;5.428;2022-07-04T09:12:09;102116.28;;;18.54;66.25
72116;BME280;59991;52.140;5.428;2022-07-04T09:14:10;102121.84;;;18.50;66.74
72116;BME280;59991;52.140;5.428;2022-07-04T09:16:12;102118.66;;;18.52;67.58
72116;BME280;59991;52.140;5.428;2022-07-04T09:18:24;102119.06;;;18.61;66.11
72116;BME280;59991;52.140;5.428;2022-07-04T09:20:29;102114.63;;;18.85;65.11
72116;BME280;59991;52.140;5.428;2022-07-04T09:22:31;102107.69;;;19.18;63.09
72116;BME280;59991;52.140;5.428;2022-07-04T09:24:51;102108.97;;;19.61;63.73
72116;BME280;59991;52.140;5.428;2022-07-04T09:27:05;102105.09;;;19.96;61.80
72116;BME280;59991;52.140;5.428;2022-07-04T09:29:11;102094.75;;;20.00;61.41
72116;BME280;59991;52.140;5.428;2022-07-04T09:31:19;102104.31;;;20.30;62.39
72116;BME280;59991;52.140;5.428;2022-07-04T09:33:21;102102.75;;;20.63;60.77
72116;BME280;59991;52.140;5.428;2022-07-04T09:35:24;102097.31;;;20.56;60.35
72116;BME280;59991;52.140;5.428;2022-07-04T09:37:34;102096.44;;;20.25;59.38
72116;BME280;59991;52.140;5.428;2022-07-04T09:39:53;102101.84;;;20.01;59.13
72116;BME280;59991;52.140;5.428;2022-07-04T09:42:04;102103.56;;;19.88;57.43
72116;BME280;59991;52.140;5.428;2022-07-04T09:44:21;102108.44;;;19.77;58.77
72116;BME280;59991;52.140;5.428;2022-07-04T09:46:33;102102.25;;;19.62;57.91
72116;BME280;59991;52.140;5.428;2022-07-04T09:48:52;102103.91;;;19.53;58.18
72116;BME280;59991;52.140;5.428;2022-07-04T09:50:58;102102.72;;;19.47;58.00
72116;BME280;59991;52.140;5.428;2022-07-04T09:53:02;102109.91;;;19.41;58.86
72116;BME280;59991;52.140;5.428;2022-07-04T09:55:06;102109.91;;;19.41;57.82
72116;BME280;59991;52.140;5.428;2022-07-04T09:57:09;102107.88;;;19.45;57.38
72116;BME280;59991;52.140;5.428;2022-07-04T09:59:13;102103.91;;;19.53;58.28
72116;BME280;59991;52.140;5.428;2022-07-04T10:01:20;102104.75;;;19.87;58.35
72116;BME280;59991;52.140;5.428;2022-07-04T10:03:28;102102.53;;;20.13;57.72
72116;BME280;59991;52.140;5.428;2022-07-04T10:05:31;102100.00;;;20.59;56.94
72116;BME280;59991;52.140;5.428;2022-07-04T10:07:38;102105.47;;;20.97;56.13
72116;BME280;59991;52.140;5.428;2022-07-04T10:12:27;102102.03;;;20.59;56.99
72116;BME280;59991;52.140;5.428;2022-07-04T10:14:29;102095.09;;;20.40;56.78
72116;BME280;59991;52.140;5.428;2022-07-04T10:16:31;102100.75;;;20.29;57.58
72116;BME280;59991;52.140;5.428;2022-07-04T10:18:35;102094.50;;;20.22;58.14
72116;BME280;59991;52.140;5.428;2022-07-04T10:20:42;102084.72;;;20.14;58.40
72116;BME280;59991;52.140;5.428;2022-07-04T10:22:47;102104.50;;;20.12;58.57
72116;BME280;59991;52.140;5.428;2022-07-04T10:24:53;102098.63;;;20.07;57.42
72116;BME280;59991;52.140;5.428;2022-07-04T10:26:55;102098.72;;;19.99;57.33
72116;BME280;59991;52.140;5.428;2022-07-04T10:29:13;102092.88;;;19.90;57.64
72116;BME280;59991;52.140;5.428;2022-07-04T10:31:33;102090.91;;;19.87;57.55
72116;BME280;59991;52.140;5.428;2022-07-04T10:33:47;102093.63;;;19.94;57.63
72116;BME280;59991;52.140;5.428;2022-07-04T10:36:03;102093.59;;;19.98;57.19
72116;BME280;59991;52.140;5.428;2022-07-04T10:38:06;102087.53;;;20.10;57.58
72116;BME280;59991;52.140;5.428;2022-07-04T10:40:42;102094.22;;;20.13;56.91
72116;BME280;59991;52.140;5.428;2022-07-04T10:42:47;102104.84;;;20.18;57.63
72116;BME280;59991;52.140;5.428;2022-07-04T10:44:52;102092.72;;;20.42;56.03
72116;BME280;59991;52.140;5.428;2022-07-04T10:46:57;102103.53;;;20.63;55.83
72116;BME280;59991;52.140;5.428;2022-07-04T10:49:23;102090.66;;;20.50;55.40
72116;BME280;59991;52.140;5.428;2022-07-04T10:51:54;102099.06;;;20.73;56.46
72116;BME280;59991;52.140;5.428;2022-07-04T10:54:03;102096.69;;;20.98;55.44
72116;BME280;59991;52.140;5.428;2022-07-04T10:58:54;102084.81;;;21.52;55.93
72116;BME280;59991;52.140;5.428;2022-07-04T11:01:10;102092.09;;;21.65;53.61